createdAt,value
2022-11-29T00:00:54.078Z,10.40
2022-11-29T00:03:22.733Z,9.68
2022-11-29T00:05:54.299Z,9.85
2022-11-29T00:08:25.445Z,8.95
2022-11-29T00:10:53.874Z,9.02
2022-11-29T00:13:22.497Z,9.15
2022-11-29T00:15:51.143Z,8.35
2022-11-29T00:18:19.938Z,9.25
2022-11-29T00:20:50.778Z,8.60
2022-11-29T00:23:19.656Z,9.27
2022-11-29T00:25:52.545Z,9.27
2022-11-29T00:28:21.429Z,9.48
2022-11-29T00:30:50.392Z,9.10
2022-11-29T00:33:21.908Z,9.57
2022-11-29T00:35:50.702Z,9.93
2022-11-29T00:38:26.745Z,9.50
2022-11-29T00:40:58.908Z,9.15
2022-11-29T00:43:27.680Z,9.38
2022-11-29T00:46:00.779Z,9.82
2022-11-29T00:48:29.508Z,8.95
2022-11-29T00:50:58.104Z,8.80
2022-11-29T00:53:26.671Z,9.27
2022-11-29T00:56:07.396Z,9.13
2022-11-29T00:58:37.405Z,8.88
2022-11-29T01:01:06.582Z,8.77
2022-11-29T01:03:38.717Z,8.70
2022-11-29T01:06:09.201Z,9.13
2022-11-29T01:08:37.889Z,8.50
2022-11-29T01:11:18.981Z,9.05
2022-11-29T01:13:51.138Z,8.95
2022-11-29T01:16:20.147Z,8.45
2022-11-29T01:18:52.407Z,8.45
2022-11-29T01:21:22.422Z,8.73
2022-11-29T01:23:52.173Z,8.85
2022-11-29T01:26:39.370Z,8.93
2022-11-29T01:29:09.879Z,8.90
2022-11-29T01:31:39.658Z,9.65
2022-11-29T01:34:08.729Z,9.20
2022-11-29T01:36:37.259Z,9.48
2022-11-29T01:39:07.330Z,8.80
2022-11-29T01:41:38.599Z,9.48
2022-11-29T01:44:13.811Z,9.07
2022-11-29T01:46:43.888Z,8.95
2022-11-29T01:49:16.417Z,9.88
2022-11-29T01:51:48.654Z,8.82
2022-11-29T01:54:17.140Z,8.82
2022-11-29T01:56:50.261Z,9.02
2022-11-29T01:59:50.530Z,9.13
2022-11-29T02:05:20.843Z,9.20
2022-11-29T02:07:55.025Z,9.77
2022-11-29T02:10:28.800Z,9.05
2022-11-29T02:13:06.079Z,9.20
2022-11-29T02:15:42.376Z,9.18
2022-11-29T02:18:14.784Z,8.98
2022-11-29T02:21:27.083Z,8.75
2022-11-29T02:24:14.516Z,9.40
2022-11-29T02:27:00.947Z,9.68
2022-11-29T02:30:14.239Z,8.88
2022-11-29T02:33:14.899Z,8.73
2022-11-29T02:36:18.554Z,9.00
2022-11-29T02:39:11.971Z,9.20
2022-11-29T02:41:56.528Z,9.38
2022-11-29T02:44:46.358Z,8.70
2022-11-29T02:47:26.406Z,8.85
2022-11-29T02:50:18.393Z,8.73
2022-11-29T02:52:55.960Z,8.88
2022-11-29T02:55:31.253Z,9.05
2022-11-29T02:58:04.779Z,8.65
2022-11-29T03:00:36.543Z,9.10
2022-11-29T03:03:22.674Z,9.18
2022-11-29T03:05:59.048Z,9.35
2022-11-29T03:08:41.251Z,8.88
2022-11-29T03:11:21.318Z,9.07
2022-11-29T03:13:54.996Z,8.45
2022-11-29T03:16:30.874Z,8.88
2022-11-29T03:19:12.418Z,8.32
2022-11-29T03:21:46.975Z,8.98
2022-11-29T03:24:26.943Z,8.45
2022-11-29T03:27:02.673Z,8.80
2022-11-29T03:29:37.428Z,9.02
2022-11-29T03:32:13.462Z,9.07
2022-11-29T03:34:57.696Z,9.15
2022-11-29T03:37:32.992Z,8.77
2022-11-29T03:40:07.210Z,8.55
2022-11-29T03:42:39.575Z,8.02
2022-11-29T03:45:15.306Z,8.63
2022-11-29T03:47:55.482Z,7.97
2022-11-29T03:50:29.893Z,8.38
2022-11-29T03:53:04.514Z,8.80
2022-11-29T03:55:51.544Z,8.13
2022-11-29T03:58:33.735Z,8.45
2022-11-29T04:01:36.965Z,8.35
2022-11-29T04:04:38.602Z,8.32
2022-11-29T04:07:26.721Z,8.77
2022-11-29T04:10:11.994Z,7.82
2022-11-29T04:13:09.888Z,7.90
2022-11-29T04:16:21.175Z,7.78
2022-11-29T04:19:23.859Z,8.60
2022-11-29T04:22:10.927Z,7.70
2022-11-29T04:25:20.741Z,8.95
2022-11-29T04:28:05.995Z,8.50
2022-11-29T04:30:48.757Z,8.13
2022-11-29T04:33:44.534Z,8.85
2022-11-29T04:36:31.848Z,8.32
2022-11-29T04:39:38.107Z,13.25
2022-11-29T04:42:30.905Z,10.75
2022-11-29T04:45:11.216Z,9.60
2022-11-29T04:47:56.180Z,8.90
2022-11-29T04:50:43.680Z,9.48
2022-11-29T04:53:49.099Z,9.32
2022-11-29T04:56:26.802Z,8.90
2022-11-29T04:59:03.284Z,9.50
2022-11-29T05:01:42.540Z,8.52
2022-11-29T05:04:19.864Z,8.63
2022-11-29T05:06:59.493Z,8.80
2022-11-29T05:09:37.730Z,9.98
2022-11-29T05:12:15.347Z,9.05
2022-11-29T05:14:59.148Z,8.95
2022-11-29T05:17:34.589Z,8.38
2022-11-29T05:20:20.027Z,8.75
2022-11-29T05:23:02.754Z,8.93
2022-11-29T05:25:46.119Z,9.20
2022-11-29T05:28:21.589Z,8.85
2022-11-29T05:31:05.133Z,8.90
2022-11-29T05:33:52.981Z,8.15
2022-11-29T05:36:27.346Z,8.43
2022-11-29T05:39:11.909Z,8.68
2022-11-29T05:41:58.744Z,8.77
2022-11-29T05:44:35.052Z,9.30
2022-11-29T05:47:05.004Z,8.73
2022-11-29T05:49:41.122Z,9.23
2022-11-29T05:52:31.795Z,9.43
2022-11-29T05:55:19.905Z,9.48
2022-11-29T05:57:56.586Z,9.07
2022-11-29T06:00:26.503Z,9.48
2022-11-29T06:03:04.693Z,9.73
2022-11-29T06:05:38.102Z,8.80
2022-11-29T06:08:14.502Z,8.70
2022-11-29T06:10:59.229Z,9.73
2022-11-29T06:13:45.973Z,9.60
2022-11-29T06:16:52.937Z,10.02
2022-11-29T06:19:49.776Z,10.05
2022-11-29T06:22:51.631Z,9.43
2022-11-29T06:25:47.461Z,9.40
2022-11-29T06:28:39.372Z,9.65
2022-11-29T06:31:17.187Z,10.00
2022-11-29T06:33:55.297Z,10.10
2022-11-29T06:36:29.597Z,9.60
2022-11-29T06:38:58.296Z,10.18
2022-11-29T06:41:28.600Z,9.55
2022-11-29T06:43:57.515Z,9.45
2022-11-29T06:46:41.361Z,10.15
2022-11-29T06:49:14.026Z,10.23
2022-11-29T06:51:54.118Z,10.32
2022-11-29T06:54:33.735Z,10.35
2022-11-29T06:57:13.176Z,11.02
2022-11-29T06:59:56.428Z,10.73
2022-11-29T07:02:35.639Z,10.27
2022-11-29T07:05:26.618Z,9.90
2022-11-29T07:07:57.779Z,10.77
2022-11-29T07:10:27.936Z,9.85
2022-11-29T07:12:58.373Z,11.57
2022-11-29T07:15:28.129Z,10.85
2022-11-29T07:18:11.616Z,11.90
2022-11-29T07:20:46.792Z,11.82
2022-11-29T07:23:30.844Z,12.32
2022-11-29T07:26:16.845Z,14.07
2022-11-29T07:29:03.538Z,14.02
2022-11-29T07:31:44.310Z,13.43
2022-11-29T07:34:24.165Z,14.98
2022-11-29T07:37:03.081Z,14.45
2022-11-29T07:39:41.451Z,14.00
2022-11-29T07:42:19.095Z,13.25
2022-11-29T07:44:57.661Z,14.10
2022-11-29T07:47:27.496Z,14.50
2022-11-29T07:49:57.458Z,14.30
2022-11-29T07:52:26.122Z,15.32
2022-11-29T07:54:54.606Z,14.73
2022-11-29T07:57:23.348Z,12.93
2022-11-29T07:59:53.251Z,14.75
2022-11-29T08:02:28.762Z,14.52
2022-11-29T08:04:57.641Z,14.30
2022-11-29T08:07:26.428Z,14.40
2022-11-29T08:09:55.264Z,14.35
2022-11-29T08:12:27.349Z,13.93
2022-11-29T08:15:12.414Z,13.85
2022-11-29T08:17:41.383Z,14.30
2022-11-29T08:20:12.468Z,14.25
2022-11-29T08:22:41.442Z,14.13
2022-11-29T08:25:11.040Z,13.82
2022-11-29T08:27:39.934Z,14.30
2022-11-29T08:30:12.365Z,13.48
2022-11-29T08:32:44.839Z,13.23
2022-11-29T08:35:17.410Z,13.75
2022-11-29T08:37:48.369Z,13.45
2022-11-29T08:40:18.389Z,13.48
2022-11-29T08:42:50.181Z,13.63
2022-11-29T08:45:18.972Z,12.80
2022-11-29T08:47:49.090Z,11.88
2022-11-29T08:50:22.536Z,13.07
2022-11-29T08:53:08.893Z,12.55
2022-11-29T08:55:39.964Z,12.43
2022-11-29T08:58:10.608Z,12.38
2022-11-29T09:00:41.454Z,12.10
2022-11-29T09:03:28.457Z,13.23
2022-11-29T09:05:59.651Z,12.95
2022-11-29T09:08:28.238Z,12.77
2022-11-29T09:10:56.645Z,12.68
2022-11-29T09:13:25.127Z,12.90
2022-11-29T09:15:53.621Z,12.82
2022-11-29T09:18:23.390Z,13.57
2022-11-29T09:20:51.916Z,12.75
2022-11-29T09:23:20.395Z,12.65
2022-11-29T09:25:50.461Z,12.93
2022-11-29T09:28:19.013Z,11.77
2022-11-29T09:30:49.632Z,11.82
2022-11-29T09:33:18.522Z,11.63
2022-11-29T09:35:49.442Z,11.38
2022-11-29T09:38:17.945Z,11.63
2022-11-29T09:40:51.038Z,62.80
2022-11-29T09:43:28.434Z,41.75
2022-11-29T09:46:02.324Z,17.20
2022-11-29T09:48:47.321Z,13.10
2022-11-29T09:51:26.536Z,11.95
2022-11-29T09:54:07.912Z,12.10
2022-11-29T09:56:39.475Z,10.95
2022-11-29T09:59:12.940Z,10.60
2022-11-29T10:01:45.200Z,11.20
2022-11-29T10:04:18.223Z,11.50
2022-11-29T10:06:56.581Z,12.98
2022-11-29T10:09:33.922Z,11.40
2022-11-29T10:12:17.017Z,11.27
2022-11-29T10:14:50.677Z,11.50
2022-11-29T10:17:29.063Z,10.35
2022-11-29T10:20:03.430Z,10.43
2022-11-29T10:22:42.343Z,9.95
2022-11-29T10:25:17.921Z,11.18
2022-11-29T10:27:46.528Z,10.32
2022-11-29T10:30:16.393Z,11.40
2022-11-29T10:32:47.618Z,11.55
2022-11-29T10:35:18.243Z,11.40
2022-11-29T10:38:07.834Z,11.27
2022-11-29T10:40:39.226Z,12.40
2022-11-29T10:43:09.084Z,11.07
2022-11-29T10:45:41.827Z,10.13
2022-11-29T10:48:13.824Z,11.35
2022-11-29T10:50:44.161Z,11.18
2022-11-29T10:53:16.092Z,11.10
2022-11-29T10:55:50.979Z,10.25
2022-11-29T10:58:27.999Z,10.02
2022-11-29T11:00:59.565Z,10.43
2022-11-29T11:03:37.588Z,9.55
2022-11-29T11:06:13.092Z,10.88
2022-11-29T11:08:46.128Z,10.45
2022-11-29T11:11:15.452Z,9.50
2022-11-29T11:13:43.989Z,10.32
2022-11-29T11:16:26.713Z,10.45
2022-11-29T11:18:55.615Z,10.68
2022-11-29T11:21:32.526Z,11.40
2022-11-29T11:24:04.460Z,9.57
2022-11-29T11:26:44.940Z,10.48
2022-11-29T11:29:19.955Z,10.27
2022-11-29T11:31:55.690Z,10.00
2022-11-29T11:34:30.409Z,10.05
2022-11-29T11:37:19.716Z,8.93
2022-11-29T11:39:50.849Z,8.68
2022-11-29T11:42:40.429Z,8.88
2022-11-29T11:45:27.244Z,8.90
2022-11-29T11:47:58.484Z,9.07
2022-11-29T11:51:09.314Z,8.82
2022-11-29T11:53:51.978Z,8.40
2022-11-29T11:56:22.713Z,8.27
2022-11-29T11:58:53.574Z,8.43
2022-11-29T12:01:28.187Z,7.95
2022-11-29T12:04:02.877Z,6.82
2022-11-29T12:06:44.108Z,6.72
2022-11-29T12:09:19.385Z,6.03
2022-11-29T12:11:56.283Z,6.65
2022-11-29T12:14:33.798Z,8.82
2022-11-29T12:17:13.263Z,10.02
2022-11-29T12:19:56.606Z,9.75
2022-11-29T12:22:31.963Z,10.30
2022-11-29T12:25:05.999Z,10.77
2022-11-29T12:27:35.545Z,10.60
2022-11-29T12:30:03.707Z,10.90
2022-11-29T12:32:56.769Z,8.68
2022-11-29T12:35:50.746Z,7.18
2022-11-29T12:38:30.589Z,6.25
2022-11-29T12:41:04.833Z,5.88
2022-11-29T12:43:46.492Z,5.10
2022-11-29T12:46:22.149Z,5.00
2022-11-29T12:49:00.093Z,4.70
2022-11-29T12:51:36.271Z,4.20
2022-11-29T12:54:24.663Z,4.60
2022-11-29T12:57:04.203Z,4.55
2022-11-29T12:59:48.898Z,4.38
2022-11-29T13:02:26.898Z,4.30
2022-11-29T13:05:03.972Z,4.45
2022-11-29T13:07:42.955Z,5.22
2022-11-29T13:10:31.078Z,5.20
2022-11-29T13:13:04.626Z,4.97
2022-11-29T13:15:40.540Z,5.40
2022-11-29T13:18:19.524Z,4.90
2022-11-29T13:20:55.887Z,5.18
2022-11-29T13:23:45.436Z,5.38
2022-11-29T13:26:18.200Z,5.57
2022-11-29T13:28:47.545Z,5.78
2022-11-29T13:31:20.112Z,5.70
2022-11-29T13:33:58.445Z,5.40
2022-11-29T13:36:35.039Z,5.63
2022-11-29T13:39:15.263Z,6.15
2022-11-29T13:41:54.916Z,6.60
2022-11-29T13:44:34.786Z,6.93
2022-11-29T13:47:10.086Z,6.63
2022-11-29T13:49:53.024Z,6.43
2022-11-29T13:52:43.910Z,6.00
2022-11-29T13:55:31.402Z,5.63
2022-11-29T13:58:21.742Z,6.28
2022-11-29T14:00:54.005Z,7.90
2022-11-29T14:03:31.436Z,6.72
2022-11-29T14:06:18.854Z,7.35
2022-11-29T14:09:21.732Z,6.85
2022-11-29T14:11:54.301Z,6.90
2022-11-29T14:14:31.454Z,6.75
2022-11-29T14:17:02.006Z,6.60
2022-11-29T14:19:34.335Z,5.95
2022-11-29T14:22:30.456Z,5.95
2022-11-29T14:25:49.630Z,6.18
2022-11-29T14:28:32.444Z,6.38
2022-11-29T14:31:02.578Z,6.55
2022-11-29T14:33:56.536Z,6.82
2022-11-29T14:36:45.496Z,7.00
2022-11-29T14:39:27.663Z,6.78
2022-11-29T14:42:04.834Z,6.63
2022-11-29T14:44:35.181Z,6.60
2022-11-29T14:47:06.319Z,6.35
2022-11-29T14:49:41.546Z,5.90
2022-11-29T14:52:20.004Z,5.30
2022-11-29T14:55:04.244Z,5.82
2022-11-29T14:57:55.683Z,5.47
2022-11-29T15:00:28.402Z,5.65
2022-11-29T15:03:05.316Z,5.68
2022-11-29T15:05:36.267Z,5.45
2022-11-29T15:08:16.831Z,4.93
2022-11-29T15:10:51.554Z,4.97
2022-11-29T15:13:36.324Z,5.53
2022-11-29T15:16:31.279Z,4.70
2022-11-29T15:19:54.448Z,4.63
2022-11-29T15:22:27.820Z,4.63
2022-11-29T15:25:05.785Z,5.30
2022-11-29T15:27:40.251Z,5.35
2022-11-29T15:30:27.879Z,5.47
2022-11-29T15:32:56.614Z,4.93
2022-11-29T15:35:24.904Z,4.57
2022-11-29T15:37:53.709Z,5.47
2022-11-29T15:40:58.608Z,4.32
2022-11-29T15:43:31.414Z,4.78
2022-11-29T15:46:01.219Z,5.78
2022-11-29T15:48:31.492Z,5.93
2022-11-29T15:51:17.362Z,5.65
2022-11-29T15:53:48.566Z,5.55
2022-11-29T15:56:51.869Z,5.18
2022-11-29T15:59:34.548Z,5.40
2022-11-29T16:02:08.709Z,5.32
2022-11-29T16:04:45.095Z,5.57
2022-11-29T16:07:21.950Z,5.90
2022-11-29T16:09:56.393Z,6.07
2022-11-29T16:12:24.812Z,6.43
2022-11-29T16:14:56.535Z,6.68
2022-11-29T16:17:26.902Z,6.53
2022-11-29T16:20:23.354Z,6.40
2022-11-29T16:23:05.165Z,6.28
2022-11-29T16:25:37.547Z,7.10
2022-11-29T16:28:07.169Z,6.70
2022-11-29T16:30:43.094Z,6.78
2022-11-29T16:33:23.691Z,6.63
2022-11-29T16:35:53.244Z,7.10
2022-11-29T16:38:23.891Z,7.60
2022-11-29T16:41:04.635Z,7.88
2022-11-29T16:43:48.640Z,7.55
2022-11-29T16:46:37.473Z,7.72
2022-11-29T16:49:36.534Z,8.45
2022-11-29T16:52:23.147Z,7.78
2022-11-29T20:49:43.224Z,20.42
2022-11-29T20:52:20.215Z,18.05
2022-11-29T20:54:49.068Z,17.27
2022-11-29T20:57:19.656Z,20.57
2022-11-29T20:59:48.530Z,17.73
2022-11-29T21:02:17.379Z,16.20
2022-11-29T21:04:47.498Z,31.08
2022-11-29T21:07:16.902Z,22.58
2022-11-29T21:09:45.695Z,37.23
2022-11-29T21:12:15.602Z,24.83
2022-11-29T21:14:47.412Z,21.25
2022-11-29T21:17:27.528Z,24.52
2022-11-29T21:20:07.217Z,17.02
2022-11-29T21:22:50.780Z,18.43
2022-11-29T21:25:30.182Z,23.80
2022-11-29T21:28:10.569Z,19.83
2022-11-29T21:30:40.245Z,20.25
2022-11-29T21:33:18.789Z,19.13
2022-11-29T21:35:54.215Z,23.30
2022-11-29T21:38:26.121Z,20.95
2022-11-29T21:40:57.590Z,20.80
2022-11-29T21:43:50.496Z,17.50
2022-11-29T21:46:22.746Z,17.42
2022-11-29T21:48:56.289Z,17.27
2022-11-29T21:51:33.502Z,25.15
2022-11-29T21:54:05.924Z,31.38
2022-11-29T21:56:34.565Z,17.42
2022-11-29T21:59:08.965Z,15.52
2022-11-29T22:01:38.331Z,17.67
2022-11-29T22:04:07.296Z,20.25
2022-11-29T22:06:37.880Z,19.35
2022-11-29T22:09:07.815Z,19.10
2022-11-29T22:11:36.543Z,16.52
2022-11-29T22:15:24.145Z,19.30
2022-11-29T22:17:47.592Z,20.42
2022-11-29T22:20:16.562Z,19.23
2022-11-29T22:22:52.532Z,17.50
2022-11-29T22:25:35.214Z,16.42
2022-11-29T22:28:09.884Z,19.10
2022-11-29T22:30:43.420Z,19.65
2022-11-29T22:33:18.468Z,17.05
2022-11-29T22:35:47.246Z,37.03
2022-11-29T22:38:19.225Z,20.67
2022-11-29T22:40:49.758Z,19.50
2022-11-29T22:43:18.437Z,18.33
2022-11-29T22:49:25.339Z,26.30
2022-11-29T22:51:58.358Z,18.13
2022-11-29T22:54:47.741Z,16.23
2022-11-29T23:00:44.089Z,17.70
2022-11-29T23:03:19.084Z,17.23
2022-11-29T23:05:53.124Z,21.50
2022-11-29T23:08:26.883Z,16.13
2022-11-29T23:11:07.107Z,14.93
2022-11-29T23:13:54.170Z,16.30
2022-11-29T23:16:34.558Z,15.43
2022-11-29T23:19:04.126Z,15.75
2022-11-29T23:21:49.206Z,15.87
2022-11-29T23:24:25.307Z,14.60
2022-11-29T23:26:58.459Z,15.70
2022-11-29T23:30:18.594Z,14.88
2022-11-29T23:32:59.320Z,14.45
2022-11-29T23:35:35.264Z,13.73
2022-11-29T23:38:22.486Z,14.73
2022-11-29T23:40:52.150Z,13.30
2022-11-29T23:43:25.422Z,14.15
2022-11-29T23:45:54.419Z,13.40
2022-11-29T23:48:28.034Z,13.03
2022-11-29T23:51:41.678Z,14.77
2022-11-29T23:54:10.313Z,13.00
2022-11-29T23:56:41.660Z,14.13
2022-11-29T23:59:11.574Z,13.05
